createdAt,value
2022-08-06T00:00:26.478Z,64.60
2022-08-06T00:02:54.803Z,64.50
2022-08-06T00:05:29.813Z,64.50
2022-08-06T00:08:02.509Z,64.40
2022-08-06T00:10:30.811Z,64.50
2022-08-06T00:13:02.029Z,64.50
2022-08-06T00:16:06.029Z,64.50
2022-08-06T00:18:20.601Z,64.40
2022-08-06T00:20:50.684Z,64.30
2022-08-06T00:23:18.483Z,64.30
2022-08-06T00:25:52.847Z,64.50
2022-08-06T00:28:30.814Z,64.30
2022-08-06T00:31:05.679Z,64.20
2022-08-06T00:33:49.900Z,64.30
2022-08-06T00:36:28.470Z,64.40
2022-08-06T00:38:59.537Z,64.40
2022-08-06T00:41:30.671Z,64.30
2022-08-06T00:44:09.041Z,64.30
2022-08-06T00:46:39.970Z,64.30
2022-08-06T00:49:11.515Z,64.10
2022-08-06T00:51:51.574Z,64.00
2022-08-06T00:54:28.964Z,64.20
2022-08-06T00:57:07.749Z,64.10
2022-08-06T00:59:37.831Z,64.10
2022-08-06T01:02:10.107Z,64.10
2022-08-06T01:04:38.395Z,64.00
2022-08-06T01:07:08.880Z,64.10
2022-08-06T01:09:46.045Z,64.10
2022-08-06T01:12:33.598Z,64.00
2022-08-06T01:15:15.282Z,64.00
2022-08-06T01:18:15.290Z,64.10
2022-08-06T01:21:59.355Z,64.00
2022-08-06T01:23:57.676Z,63.90
2022-08-06T01:26:54.434Z,63.90
2022-08-06T01:29:36.160Z,63.80
2022-08-06T01:32:06.256Z,63.80
2022-08-06T01:34:56.401Z,63.90
2022-08-06T01:37:38.233Z,63.90
2022-08-06T01:40:11.984Z,63.90
2022-08-06T01:42:41.062Z,64.00
2022-08-06T01:45:15.128Z,64.00
2022-08-06T01:47:54.019Z,64.00
2022-08-06T01:50:28.218Z,64.10
2022-08-06T01:53:00.069Z,64.00
2022-08-06T01:55:42.496Z,64.00
2022-08-06T01:58:29.536Z,64.00
2022-08-06T02:01:01.863Z,63.90
2022-08-06T02:03:50.154Z,63.90
2022-08-06T02:06:33.777Z,63.90
2022-08-06T02:09:22.605Z,63.90
2022-08-06T02:12:11.563Z,63.90
2022-08-06T02:14:53.931Z,63.80
2022-08-06T02:17:26.693Z,63.90
2022-08-06T02:20:19.088Z,64.00
2022-08-06T02:23:04.444Z,64.10
2022-08-06T02:25:34.522Z,63.80
2022-08-06T02:28:05.879Z,64.00
2022-08-06T02:30:42.988Z,64.00
2022-08-06T02:33:18.278Z,64.00
2022-08-06T02:36:27.327Z,64.00
2022-08-06T02:39:21.989Z,64.10
2022-08-06T02:42:15.656Z,64.10
2022-08-06T02:45:03.703Z,63.90
2022-08-06T02:48:01.128Z,64.00
2022-08-06T02:50:39.058Z,64.00
2022-08-06T02:53:23.980Z,64.00
2022-08-06T02:56:00.234Z,64.00
2022-08-06T02:58:57.385Z,64.10
2022-08-06T03:01:43.131Z,64.00
2022-08-06T03:04:11.738Z,63.90
2022-08-06T03:06:42.707Z,64.10
2022-08-06T03:09:15.149Z,64.00
2022-08-06T03:11:47.545Z,64.10
2022-08-06T03:15:03.337Z,64.00
2022-08-06T03:17:07.321Z,63.80
2022-08-06T03:19:56.087Z,64.10
2022-08-06T03:22:34.418Z,64.00
2022-08-06T03:25:06.184Z,63.90
2022-08-06T03:27:43.663Z,64.00
2022-08-06T03:30:31.774Z,64.00
2022-08-06T03:33:29.760Z,64.00
2022-08-06T03:36:01.926Z,64.00
2022-08-06T03:38:38.794Z,63.80
2022-08-06T03:41:08.195Z,63.90
2022-08-06T03:43:55.794Z,63.90
2022-08-06T03:46:34.504Z,64.00
2022-08-06T03:49:05.677Z,64.00
2022-08-06T03:51:52.931Z,64.00
2022-08-06T03:54:31.832Z,63.90
2022-08-06T03:57:10.227Z,64.60
2022-08-06T03:59:57.513Z,63.90
2022-08-06T04:02:37.196Z,63.90
2022-08-06T04:05:20.913Z,64.10
2022-08-06T04:07:58.725Z,63.90
2022-08-06T04:10:52.782Z,64.70
2022-08-06T04:14:03.674Z,64.10
2022-08-06T04:16:15.359Z,64.10
2022-08-06T04:18:58.229Z,64.00
2022-08-06T04:22:59.691Z,64.00
2022-08-06T04:24:14.794Z,63.90
2022-08-06T04:26:45.746Z,64.10
2022-08-06T04:29:18.095Z,64.10
2022-08-06T04:32:12.797Z,64.00
2022-08-06T04:36:05.993Z,64.40
2022-08-06T04:37:27.080Z,64.00
2022-08-06T04:40:13.104Z,64.00
2022-08-06T04:42:43.099Z,64.00
2022-08-06T04:46:14.750Z,63.90
2022-08-06T04:48:00.587Z,64.10
2022-08-06T04:50:32.580Z,64.10
2022-08-06T04:53:08.268Z,64.00
2022-08-06T04:55:36.589Z,64.10
2022-08-06T04:58:08.407Z,64.10
2022-08-06T05:01:04.099Z,64.20
2022-08-06T05:04:06.223Z,64.30
2022-08-06T05:06:47.334Z,64.10
2022-08-06T05:09:42.381Z,64.30
2022-08-06T05:12:33.030Z,64.50
2022-08-06T05:15:09.162Z,64.60
2022-08-06T05:17:48.603Z,64.60
2022-08-06T05:20:27.533Z,64.60
2022-08-06T05:23:08.548Z,64.80
2022-08-06T05:25:37.646Z,64.90
2022-08-06T05:28:10.874Z,64.80
2022-08-06T05:30:48.423Z,64.90
2022-08-06T05:33:37.514Z,65.10
2022-08-06T05:36:19.239Z,65.30
2022-08-06T05:38:58.861Z,65.30
2022-08-06T05:41:29.947Z,65.30
2022-08-06T05:44:02.349Z,65.40
2022-08-06T05:46:46.852Z,65.50
2022-08-06T05:49:55.100Z,65.60
2022-08-06T05:52:18.675Z,65.60
2022-08-06T05:55:11.615Z,65.80
2022-08-06T05:57:55.948Z,65.90
2022-08-06T06:00:42.827Z,66.10
2022-08-06T06:03:24.974Z,66.20
2022-08-06T06:06:10.539Z,66.20
2022-08-06T06:08:58.803Z,66.30
2022-08-06T06:11:47.138Z,66.40
2022-08-06T06:14:36.459Z,66.50
2022-08-06T06:17:48.229Z,66.60
2022-08-06T06:21:03.933Z,67.10
2022-08-06T06:24:19.818Z,67.10
2022-08-06T06:27:35.988Z,67.20
2022-08-06T06:30:19.955Z,67.60
2022-08-06T06:33:41.224Z,67.70
2022-08-06T06:36:29.331Z,67.80
2022-08-06T06:39:46.293Z,68.20
2022-08-06T06:42:39.308Z,68.20
2022-08-06T06:46:05.975Z,68.30
2022-08-06T06:48:58.613Z,68.60
2022-08-06T06:51:57.032Z,68.40
2022-08-06T06:54:35.521Z,68.80
2022-08-06T06:57:09.206Z,69.10
2022-08-06T07:00:01.662Z,69.40
2022-08-06T07:02:31.614Z,69.40
2022-08-06T07:05:07.371Z,69.40
2022-08-06T07:07:36.655Z,70.00
2022-08-06T07:10:10.323Z,69.80
2022-08-06T07:12:41.229Z,69.80
2022-08-06T07:15:15.105Z,69.50
2022-08-06T07:17:49.215Z,69.70
2022-08-06T07:20:26.339Z,69.70
2022-08-06T07:24:03.492Z,69.60
2022-08-06T07:25:54.068Z,69.60
2022-08-06T07:28:27.947Z,69.70
2022-08-06T07:31:04.478Z,69.70
2022-08-06T07:33:42.981Z,69.60
2022-08-06T07:36:31.774Z,69.60
2022-08-06T07:39:14.533Z,69.90
2022-08-06T07:42:07.446Z,69.70
2022-08-06T07:44:55.831Z,69.60
2022-08-06T07:47:46.779Z,69.70
2022-08-06T07:50:23.860Z,69.70
2022-08-06T07:52:54.683Z,69.80
2022-08-06T07:55:36.968Z,69.60
2022-08-06T07:58:06.055Z,69.70
2022-08-06T08:00:33.379Z,70.50
2022-08-06T08:03:55.868Z,69.80
2022-08-06T08:06:25.627Z,69.60
2022-08-06T08:08:57.695Z,69.70
2022-08-06T08:12:16.222Z,69.80
2022-08-06T08:14:22.093Z,69.80
2022-08-06T08:16:51.319Z,69.60
2022-08-06T08:19:34.931Z,69.40
2022-08-06T08:22:10.280Z,69.70
2022-08-06T08:24:54.135Z,69.40
2022-08-06T08:27:23.661Z,69.50
2022-08-06T08:29:56.742Z,69.50
2022-08-06T08:32:26.426Z,69.50
2022-08-06T08:34:54.506Z,69.40
2022-08-06T08:37:23.838Z,69.50
2022-08-06T08:39:51.066Z,69.60
2022-08-06T08:42:38.338Z,69.50
2022-08-06T08:45:12.859Z,69.50
2022-08-06T08:47:53.666Z,69.50
2022-08-06T08:50:28.328Z,69.50
2022-08-06T08:53:10.804Z,69.50
2022-08-06T08:57:02.254Z,69.50
2022-08-06T08:58:42.240Z,69.40
2022-08-06T09:01:16.982Z,69.40
2022-08-06T09:03:59.234Z,69.40
2022-08-06T09:06:30.770Z,69.40
2022-08-06T09:09:05.439Z,69.40
2022-08-06T09:12:03.848Z,69.30
2022-08-06T09:14:28.273Z,69.40
2022-08-06T09:17:02.595Z,69.40
2022-08-06T09:19:37.950Z,69.50
2022-08-06T09:22:09.567Z,69.50
2022-08-06T09:24:39.592Z,69.60
2022-08-06T09:27:55.024Z,69.50
2022-08-06T09:30:25.569Z,69.50
2022-08-06T09:32:56.642Z,69.50
2022-08-06T09:35:44.323Z,69.50
2022-08-06T09:38:16.605Z,69.50
2022-08-06T09:41:08.924Z,69.50
2022-08-06T09:44:03.466Z,69.40
2022-08-06T09:46:44.139Z,69.40
2022-08-06T09:49:49.275Z,69.50
2022-08-06T09:52:19.961Z,69.50
2022-08-06T09:54:53.624Z,69.50
2022-08-06T09:57:41.408Z,69.30
2022-08-06T10:00:14.576Z,69.30
2022-08-06T10:02:50.717Z,69.30
2022-08-06T10:05:21.122Z,69.30
2022-08-06T10:08:11.544Z,69.10
2022-08-06T10:10:50.389Z,68.80
2022-08-06T10:13:26.366Z,68.90
2022-08-06T10:16:01.725Z,69.10
2022-08-06T10:18:56.429Z,69.20
2022-08-06T10:21:40.120Z,69.50
2022-08-06T10:24:12.543Z,69.50
2022-08-06T10:26:44.786Z,69.50
2022-08-06T10:29:14.420Z,69.60
2022-08-06T10:31:42.729Z,69.50
2022-08-06T10:34:17.136Z,70.20
2022-08-06T10:36:53.789Z,69.40
2022-08-06T10:40:09.457Z,69.30
2022-08-06T10:42:21.758Z,68.90
2022-08-06T10:44:53.661Z,68.80
2022-08-06T10:49:00.773Z,69.00
2022-08-06T10:50:26.309Z,68.90
2022-08-06T10:53:02.389Z,69.00
2022-08-06T10:55:37.399Z,68.70
2022-08-06T10:58:12.918Z,68.70
2022-08-06T11:00:45.042Z,68.90
2022-08-06T11:03:39.780Z,68.60
2022-08-06T11:06:27.976Z,68.50
2022-08-06T11:09:11.772Z,68.40
2022-08-06T11:12:08.012Z,68.50
2022-08-06T11:14:38.615Z,68.40
2022-08-06T11:17:10.998Z,68.50
2022-08-06T11:19:56.611Z,68.50
2022-08-06T11:22:43.359Z,68.40
2022-08-06T11:25:39.482Z,68.30
2022-08-06T11:28:08.448Z,68.40
2022-08-06T11:30:55.716Z,68.10
2022-08-06T11:33:34.779Z,67.90
2022-08-06T11:36:15.538Z,67.60
2022-08-06T11:38:53.634Z,67.70
2022-08-06T11:41:54.751Z,67.70
2022-08-06T11:44:24.928Z,67.70
2022-08-06T11:47:10.763Z,67.90
2022-08-06T11:49:43.329Z,68.00
2022-08-06T11:52:37.801Z,67.90
2022-08-06T11:55:12.614Z,68.00
2022-08-06T11:57:50.395Z,68.00
2022-08-06T12:00:21.274Z,67.80
2022-08-06T12:02:54.413Z,67.80
2022-08-06T12:05:23.441Z,67.80
2022-08-06T12:08:38.813Z,67.80
2022-08-06T12:11:34.359Z,67.70
2022-08-06T12:14:31.809Z,67.70
2022-08-06T12:16:54.556Z,67.70
2022-08-06T12:19:26.028Z,67.60
2022-08-06T12:21:57.220Z,67.70
2022-08-06T12:24:44.873Z,67.80
2022-08-06T12:27:16.159Z,67.80
2022-08-06T12:29:44.544Z,67.70
2022-08-06T12:32:25.535Z,67.60
2022-08-06T12:35:01.609Z,67.70
2022-08-06T12:37:48.088Z,67.90
2022-08-06T12:40:34.553Z,67.80
2022-08-06T12:43:14.916Z,67.70
2022-08-06T12:46:06.459Z,67.70
2022-08-06T12:48:32.895Z,67.70
2022-08-06T12:51:11.137Z,67.70
2022-08-06T12:53:53.472Z,67.60
2022-08-06T12:56:31.890Z,67.60
2022-08-06T12:59:04.084Z,67.70
2022-08-06T13:02:08.434Z,66.90
2022-08-06T13:04:30.178Z,66.00
2022-08-06T13:07:01.499Z,65.10
2022-08-06T13:09:35.973Z,65.40
2022-08-06T13:12:44.856Z,64.70
2022-08-06T13:15:18.578Z,63.70
2022-08-06T13:18:13.023Z,63.30
2022-08-06T13:20:57.289Z,63.00
2022-08-06T13:23:34.527Z,63.60
2022-08-06T13:26:23.694Z,63.00
2022-08-06T13:30:34.791Z,63.30
2022-08-06T13:32:19.961Z,63.80
2022-08-06T13:34:56.276Z,64.60
2022-08-06T13:37:55.739Z,65.20
2022-08-06T13:40:51.788Z,65.60
2022-08-06T13:43:53.350Z,65.80
2022-08-06T13:46:28.864Z,65.90
2022-08-06T13:49:01.309Z,66.10
2022-08-06T13:51:34.385Z,66.10
2022-08-06T13:54:15.615Z,66.10
2022-08-06T13:56:49.174Z,66.30
2022-08-06T13:59:21.787Z,66.30
2022-08-06T14:02:07.099Z,66.40
2022-08-06T14:04:36.252Z,66.40
2022-08-06T14:07:03.406Z,66.20
2022-08-06T14:09:57.815Z,66.40
2022-08-06T14:12:18.912Z,66.40
2022-08-06T14:14:48.640Z,66.30
2022-08-06T14:17:17.888Z,66.40
2022-08-06T14:20:09.522Z,66.20
2022-08-06T14:22:36.670Z,66.30
2022-08-06T14:25:06.315Z,66.30
2022-08-06T14:27:43.705Z,66.30
2022-08-06T14:30:27.565Z,66.30
2022-08-06T14:33:09.878Z,66.30
2022-08-06T14:35:51.583Z,66.40
2022-08-06T14:38:20.841Z,66.40
2022-08-06T14:41:09.659Z,66.20
2022-08-06T14:43:57.768Z,65.30
2022-08-06T14:46:30.942Z,65.80
2022-08-06T14:49:00.488Z,65.80
2022-08-06T14:52:01.098Z,65.90
2022-08-06T14:54:17.576Z,65.90
2022-08-06T14:56:52.115Z,65.80
2022-08-06T14:59:23.730Z,65.70
2022-08-06T15:01:52.351Z,66.30
2022-08-06T15:04:24.166Z,65.70
2022-08-06T15:06:58.762Z,65.80
2022-08-06T15:10:05.603Z,65.80
2022-08-06T15:12:35.191Z,65.80
2022-08-06T15:15:09.151Z,65.80
2022-08-06T15:18:04.051Z,65.80
2022-08-06T15:20:29.133Z,65.70
2022-08-06T15:23:00.213Z,65.70
2022-08-06T15:26:01.117Z,65.70
2022-08-06T15:28:14.767Z,65.70
2022-08-06T15:30:46.947Z,65.80
2022-08-06T15:33:15.116Z,65.60
2022-08-06T15:35:53.213Z,65.70
2022-08-06T15:38:27.201Z,65.50
2022-08-06T15:40:55.328Z,65.40
2022-08-06T15:43:25.678Z,65.00
2022-08-06T15:45:58.513Z,64.90
2022-08-06T15:48:30.609Z,65.00
2022-08-06T15:51:28.929Z,65.10
2022-08-06T15:53:54.626Z,64.90
2022-08-06T15:56:39.382Z,64.90
2022-08-06T15:59:15.199Z,65.10
2022-08-06T16:01:52.204Z,64.90
2022-08-06T16:04:30.806Z,64.80
2022-08-06T16:07:00.147Z,64.80
2022-08-06T16:09:28.813Z,64.80
2022-08-06T16:11:58.676Z,64.90
2022-08-06T16:14:33.486Z,64.70
2022-08-06T16:17:10.141Z,64.60
2022-08-06T16:19:49.618Z,64.70
2022-08-06T16:22:18.468Z,64.40
2022-08-06T16:24:46.025Z,64.90
2022-08-06T16:27:17.099Z,64.60
2022-08-06T16:29:48.626Z,64.50
2022-08-06T16:32:23.125Z,64.60
2022-08-06T16:34:59.171Z,64.70
2022-08-06T16:37:32.926Z,64.70
2022-08-06T16:40:06.977Z,64.80
2022-08-06T16:42:37.821Z,64.80
2022-08-06T16:45:11.822Z,64.60
2022-08-06T16:48:20.733Z,64.40
2022-08-06T16:50:42.765Z,64.60
2022-08-06T16:54:12.976Z,64.70
2022-08-06T16:55:58.534Z,64.80
2022-08-06T16:58:33.353Z,64.90
2022-08-06T17:02:14.994Z,64.60
2022-08-06T17:03:56.438Z,65.00
2022-08-06T17:06:29.726Z,64.90
2022-08-06T17:08:58.065Z,65.00
2022-08-06T17:11:46.419Z,65.00
2022-08-06T17:14:13.583Z,64.60
2022-08-06T17:16:42.230Z,65.10
2022-08-06T17:19:16.286Z,64.80
2022-08-06T17:21:52.925Z,64.50
2022-08-06T17:27:17.050Z,64.80
2022-08-06T17:30:10.039Z,64.90
2022-08-06T17:32:46.139Z,64.70
2022-08-06T17:35:16.087Z,64.90
2022-08-06T17:37:50.119Z,65.00
2022-08-06T17:40:31.388Z,65.00
2022-08-06T17:43:13.061Z,64.90
2022-08-06T17:46:00.595Z,65.10
2022-08-06T17:48:39.029Z,65.00
2022-08-06T17:51:09.770Z,65.10
2022-08-06T17:53:53.554Z,65.20
2022-08-06T17:56:30.148Z,65.10
2022-08-06T17:59:17.322Z,65.20
2022-08-06T18:01:50.446Z,65.10
2022-08-06T18:04:31.297Z,65.20
2022-08-06T18:07:12.259Z,64.90
2022-08-06T18:10:10.017Z,65.20
2022-08-06T18:12:39.606Z,65.20
2022-08-06T18:15:20.527Z,65.10
2022-08-06T18:18:03.906Z,65.10
2022-08-06T18:20:38.873Z,65.10
2022-08-06T18:23:20.858Z,65.10
2022-08-06T18:25:56.386Z,65.10
2022-08-06T18:28:31.499Z,65.10
2022-08-06T18:30:59.924Z,65.20
2022-08-06T18:33:30.578Z,65.10
2022-08-06T18:35:59.048Z,65.10
2022-08-06T18:38:32.350Z,65.10
2022-08-06T18:41:14.040Z,65.10
2022-08-06T18:43:53.785Z,65.70
2022-08-06T18:46:56.439Z,65.10
2022-08-06T18:49:15.459Z,65.10
2022-08-06T18:51:46.724Z,65.10
2022-08-06T18:54:22.834Z,65.10
2022-08-06T18:56:52.537Z,64.90
2022-08-06T18:59:26.052Z,64.80
2022-08-06T19:01:59.758Z,64.80
2022-08-06T19:04:28.871Z,64.80
2022-08-06T19:07:00.438Z,64.70
2022-08-06T19:09:33.562Z,64.80
2022-08-06T19:12:12.839Z,64.70
2022-08-06T19:14:43.936Z,64.60
2022-08-06T19:17:14.988Z,64.60
2022-08-06T19:20:19.661Z,64.60
2022-08-06T19:22:30.820Z,64.50
2022-08-06T19:25:00.455Z,64.40
2022-08-06T19:28:07.586Z,64.40
2022-08-06T19:30:41.719Z,64.50
2022-08-06T19:33:15.559Z,64.30
2022-08-06T19:36:03.398Z,64.20
2022-08-06T19:38:32.755Z,64.10
2022-08-06T19:41:01.246Z,64.20
2022-08-06T19:44:26.889Z,64.20
2022-08-06T19:46:28.971Z,64.10
2022-08-06T19:48:58.746Z,63.90
2022-08-06T19:52:02.280Z,63.70
2022-08-06T19:54:18.411Z,63.70
2022-08-06T19:56:45.560Z,63.60
2022-08-06T20:00:53.127Z,63.70
2022-08-06T20:02:08.891Z,63.80
2022-08-06T20:04:43.117Z,63.60
2022-08-06T20:07:23.757Z,63.70
2022-08-06T20:09:59.547Z,63.60
2022-08-06T20:12:29.944Z,63.70
2022-08-06T20:15:02.703Z,63.50
2022-08-06T20:17:48.934Z,63.60
2022-08-06T20:20:28.428Z,63.40
2022-08-06T20:23:00.332Z,63.40
2022-08-06T20:25:40.528Z,63.30
2022-08-06T20:29:08.856Z,63.50
2022-08-06T20:31:17.919Z,63.20
2022-08-06T20:33:58.080Z,63.20
2022-08-06T20:36:31.472Z,63.00
2022-08-06T20:39:00.088Z,63.10
2022-08-06T20:41:57.433Z,63.20
2022-08-06T20:44:18.099Z,63.10
2022-08-06T20:47:45.123Z,63.30
2022-08-06T20:50:02.861Z,63.30
2022-08-06T20:52:24.240Z,63.20
2022-08-06T20:54:52.984Z,63.20
2022-08-06T20:57:26.905Z,63.10
2022-08-06T20:59:56.896Z,63.10
2022-08-06T21:02:25.767Z,63.10
2022-08-06T21:05:14.846Z,62.90
2022-08-06T21:07:56.744Z,62.90
2022-08-06T21:10:31.123Z,62.90
2022-08-06T21:13:01.914Z,62.90
2022-08-06T21:15:52.132Z,62.90
2022-08-06T21:18:24.095Z,62.80
2022-08-06T21:20:53.875Z,62.80
2022-08-06T21:23:26.256Z,62.80
2022-08-06T21:26:11.594Z,62.90
2022-08-06T21:28:52.156Z,62.70
2022-08-06T21:31:27.941Z,62.60
2022-08-06T21:33:58.529Z,62.80
2022-08-06T21:36:28.803Z,62.80
2022-08-06T21:38:58.827Z,62.90
2022-08-06T21:41:38.520Z,62.90
2022-08-06T21:44:17.401Z,62.90
2022-08-06T21:46:50.235Z,63.10
2022-08-06T21:50:00.582Z,62.90
2022-08-06T21:52:16.207Z,63.10
2022-08-06T21:54:54.622Z,63.10
2022-08-06T21:57:45.219Z,63.00
2022-08-06T22:00:34.945Z,63.00
2022-08-06T22:03:07.018Z,63.00
2022-08-06T22:06:20.254Z,63.10
2022-08-06T22:08:30.549Z,63.00
2022-08-06T22:12:35.251Z,63.00
2022-08-06T22:13:58.654Z,63.00
2022-08-06T22:16:33.385Z,63.10
2022-08-06T22:19:02.520Z,63.10
2022-08-06T22:21:49.808Z,63.00
2022-08-06T22:24:17.615Z,63.10
2022-08-06T22:26:44.719Z,63.10
2022-08-06T22:29:17.346Z,63.20
2022-08-06T22:31:57.216Z,63.20
2022-08-06T22:34:36.326Z,63.20
2022-08-06T22:37:14.872Z,63.10
2022-08-06T22:39:44.091Z,63.00
2022-08-06T22:42:11.452Z,63.20
2022-08-06T22:45:48.933Z,63.10
2022-08-06T22:47:39.893Z,63.20
2022-08-06T22:50:11.256Z,63.20
2022-08-06T22:53:01.981Z,63.10
2022-08-06T22:55:27.396Z,63.20
2022-08-06T22:58:48.522Z,63.10
2022-08-06T23:00:46.355Z,63.10
2022-08-06T23:03:15.773Z,63.10
2022-08-06T23:05:44.839Z,63.10
2022-08-06T23:08:15.685Z,63.10
2022-08-06T23:10:49.218Z,63.10
2022-08-06T23:13:25.920Z,63.20
2022-08-06T23:15:58.377Z,63.20
2022-08-06T23:18:29.642Z,63.10
2022-08-06T23:21:20.278Z,63.10
2022-08-06T23:23:54.408Z,63.10
2022-08-06T23:26:31.051Z,62.90
2022-08-06T23:29:03.943Z,63.20
2022-08-06T23:31:33.970Z,63.10
2022-08-06T23:34:20.842Z,63.10
2022-08-06T23:36:54.274Z,63.00
2022-08-06T23:39:37.388Z,63.10
2022-08-06T23:42:14.404Z,63.00
2022-08-06T23:44:52.837Z,63.10
2022-08-06T23:47:55.474Z,63.10
2022-08-06T23:50:09.755Z,63.10
2022-08-06T23:52:41.754Z,63.00
2022-08-06T23:55:26.162Z,63.20
2022-08-06T23:58:00.427Z,63.10
